Latest Coastal Weather Observations for Cooktown

IDQ60701

Issued at 8:35 am EST Thursday 2 October 2014 (issued every 10 minutes, with the page automatically refreshed every 10 minutes)

About coastal observations | Map of coastal stations | Coastal observations for QLD | Marine services | Other Formats
Station Details ID: 031209 Name: COOKTOWN AIRPORT Lat: -15.45 Lon: 145.19 Height: 4.8 m
Data from the previous 72 hours. | See also: Recent months at Cooktown
Date/Time
EST
Temp

°C
Wind Pressure Rain
since 9am
mm
Weather Cloud Vis
km
Sea
Height
m
Swell
Dir
 
Speed
knots
Gust
knots
hPa Trend Height
m
Period
s
Dir
02/08:30am 26.4 ESE 12 18 1015.6 - 0.0 - Partly cloudy 10 - - - -
02/08:00am 24.5 ESE 12 20 1015.4 - 0.0 - Partly cloudy 10 - - - -
02/07:30am 24.2 SE 13 19 1014.9 - 0.0 - Partly cloudy 10 - - - -
02/07:00am 23.4 ESE 9 15 1014.4 - 0.0 - Partly cloudy 10 - - - -
02/06:30am 23.0 ESE 8 13 1014.1 - 0.0 - Partly cloudy 10 - - - -
02/06:00am 22.7 SE 9 14 1013.7 - 0.0 - Mostly clear 10 - - - -
02/05:30am 22.6 ESE 9 14 1013.7 - 0.0 - - 10 - - - -
02/05:00am 22.8 ESE 12 17 1013.5 - 0.0 - - 10 - - - -
02/04:30am 22.6 ESE 11 18 1013.2 - 0.0 - - 10 - - - -
02/04:00am 22.6 ESE 10 15 1013.0 - 0.0 - Partly cloudy 10 - - - -
02/03:30am 22.5 ESE 10 14 1012.9 - 0.0 - Partly cloudy 10 - - - -
02/03:00am 22.9 ESE 10 20 1013.0 - 0.0 - - 10 - - - -
02/02:30am 22.4 SE 8 12 1013.3 - 0.0 - - 10 - - - -
02/02:00am 22.6 ESE 8 14 1013.7 - 0.0 - - 10 - - - -
02/01:30am 22.7 ESE 8 12 1014.2 - 0.0 - Partly cloudy 10 - - - -
02/01:00am 22.5 ESE 6 9 1014.5 - 0.0 - Partly cloudy 10 - - - -
02/12:30am 22.4 ESE 7 10 1015.0 - 0.0 - - 10 - - - -
02/12:00am 22.5 ESE 8 12 1015.4 - 0.0 - Partly cloudy 10 - - - -
 
Date/Time
EST
Temp

°C
Wind Pressure Rain
since 9am
mm
Weather Cloud Vis
km
Sea
Height
m
Swell
Dir
 
Speed
knots
Gust
knots
hPa Trend Height
m
Period
s
Dir
01/11:30pm 23.5 ESE 8 13 1015.7 - 0.0 - Partly cloudy 10 - - - -
01/11:00pm 22.8 SE 6 9 1015.9 - 0.0 - - 10 - - - -
01/10:30pm 23.0 SE 7 10 1015.8 - 0.0 - - 10 - - - -
01/10:00pm 22.6 SE 7 11 1015.9 - 0.0 - Partly cloudy 10 - - - -
01/09:30pm 22.8 SE 7 10 1016.1 - 0.0 - - 10 - - - -
01/09:00pm 22.9 SE 8 12 1015.9 - 0.0 - Mostly clear 10 - - - -
01/08:30pm 22.7 SE 6 10 1015.8 - 0.0 - Partly cloudy 10 - - - -
01/08:00pm 22.8 SE 8 12 1015.3 - 0.0 - - 10 - - - -
01/07:30pm 23.0 ESE 9 13 1015.0 - 0.0 - - 10 - - - -
01/07:00pm 23.1 ESE 12 18 1014.6 - 0.0 - - 10 - - - -
01/06:30pm 23.4 SE 9 15 1014.2 - 0.0 - - 10 - - - -
01/06:00pm 23.8 ESE 14 21 1013.9 - 0.0 - - 10 - - - -
01/05:30pm 24.4 ESE 14 21 1013.8 - 0.0 - - 10 - - - -
01/05:00pm 25.3 ESE 13 19 1013.4 - 0.0 - - 10 - - - -
01/04:30pm 25.7 ESE 13 20 1013.4 - 0.0 - - 10 - - - -
01/04:00pm 25.8 SE 13 20 1013.4 - 0.0 - - 10 - - - -
01/03:30pm 26.3 ESE 13 21 1013.4 - 0.0 - - 10 - - - -
01/03:00pm 26.5 SE 14 22 1013.7 R 0.0 Fine Mostly clear 40 - - - -
01/02:30pm 26.0 SE 12 19 1014.1 - 0.0 - Partly cloudy 10 - - - -
01/02:00pm 25.5 ESE 14 23 1014.2 - 0.0 - Partly cloudy 10 - - - -
01/01:30pm 27.0 SE 13 18 1014.4 - 0.0 - Cloudy 10 - - - -
01/01:00pm 26.0 SE 12 20 1015.0 - 0.0 - Partly cloudy 10 - - - -
01/12:30pm 26.5 ESE 14 22 1015.5 - 0.0 - Partly cloudy 10 - - - -
01/12:00pm 27.3 SE 14 19 1015.6 - 0.0 - Cloudy 10 - - - -
01/11:30am 26.7 ESE 13 19 1016.4 - 0.0 - Partly cloudy 10 - - - -
01/11:00am 25.7 SE 12 19 1016.9 - 0.0 - Partly cloudy 10 - - - -
01/10:30am 26.3 ESE 13 22 1017.2 - 0.0 - Partly cloudy 10 - - - -
01/10:00am 25.6 SE 11 19 1017.4 - 0.0 - Partly cloudy 10 - - - -
01/09:30am 25.0 SE 11 17 1017.3 - 0.0 - Partly cloudy 10 - - - -
01/09:00am 24.9 SE 9 16 1017.3 R 0.0 Fine Mostly cloudy 40 - - - -
01/08:30am 24.3 SE 10 17 - - 0.0 - Partly cloudy 10 - - - -
01/08:00am 24.2 SE 10 15 1017.1 - 0.0 - Cloudy 10 - - - -
01/07:30am 23.9 SE 9 15 1016.6 - 0.0 - Cloudy 10 - - - -
01/07:00am 23.5 SE 8 13 1016.0 - 0.0 - Cloudy 10 - - - -
01/06:30am 23.1 SE 8 15 1015.5 - 0.0 - Partly cloudy 10 - - - -
01/06:00am 22.4 SE 7 12 1015.1 - 0.0 - - 10 - - - -
01/05:30am 22.9 ESE 9 14 1015.1 - 0.0 - Partly cloudy 10 - - - -
01/05:00am 23.0 ESE 10 15 1014.8 - 0.0 - Partly cloudy 10 - - - -
01/04:30am 22.7 ESE 10 13 1014.7 - 0.0 - - 10 - - - -
01/04:00am 22.7 SE 8 11 1014.4 - 0.0 - - 10 - - - -
01/03:30am 22.9 SE 9 16 1014.3 - 0.0 - Partly cloudy 10 - - - -
01/03:00am 23.1 ESE 11 16 1014.3 - 0.0 - Mostly cloudy 10 - - - -
01/02:30am 23.4 ESE 12 18 1014.6 - 0.0 - Partly cloudy 10 - - - -
01/02:00am 23.2 ESE 8 15 1015.0 - 0.0 - Partly cloudy 10 - - - -
01/01:30am 22.9 ESE 11 15 1015.3 - 0.0 - Partly cloudy 10 - - - -
01/01:00am 23.2 ESE 10 13 1015.7 - 0.0 - Partly cloudy 10 - - - -
01/12:30am 23.0 ESE 8 12 1016.2 - 0.0 - Partly cloudy 10 - - - -
01/12:00am 23.2 SE 9 14 1016.4 - 0.0 - Mostly clear 10 - - - -
 
Date/Time
EST
Temp

°C
Wind Pressure Rain
since 9am
mm
Weather Cloud Vis
km
Sea
Height
m
Swell
Dir
 
Speed
knots
Gust
knots
hPa Trend Height
m
Period
s
Dir
30/11:30pm 23.1 SE 9 14 1016.7 - 0.0 - Partly cloudy 10 - - - -
30/11:00pm 23.0 SE 9 16 1017.0 - 0.0 - Partly cloudy 10 - - - -
30/10:30pm 23.0 SE 8 13 1017.2 - 0.0 - Partly cloudy 10 - - - -
30/10:00pm 23.1 SE 9 15 1017.3 - 0.0 - Partly cloudy 10 - - - -
30/09:30pm 22.9 SE 7 9 1017.2 - 0.0 - Partly cloudy 10 - - - -
30/09:00pm 22.7 SE 7 10 1016.8 - 0.0 - - 10 - - - -
30/08:30pm 22.8 SE 7 11 1016.7 - 0.0 - - 10 - - - -
30/08:00pm 22.8 SE 7 11 1016.5 - 0.0 - - 10 - - - -
30/07:30pm 22.8 SE 7 12 1016.3 - 0.0 - - 10 - - - -
30/07:00pm 23.1 SE 7 11 1016.0 - 0.0 - - 10 - - - -
30/06:30pm 23.5 SE 7 11 1015.6 - 0.0 - - 10 - - - -
30/06:00pm 24.1 SE 12 18 1015.1 - 0.0 - - 10 - - - -
30/05:30pm 24.7 ESE 11 16 1015.0 - 0.0 - - 10 - - - -
30/05:00pm 25.2 ESE 12 21 1014.9 - 0.0 - - 10 - - - -
30/04:30pm 25.6 ESE 13 19 1014.8 - 0.0 - - 10 - - - -
30/04:00pm 26.0 ESE 15 20 1014.8 - 0.0 - Partly cloudy 10 - - - -
30/03:30pm 26.3 ESE 12 20 1014.8 - 0.0 - Partly cloudy 10 - - - -
30/03:00pm 26.6 ESE 14 19 1014.9 R 0.0 Fine Mostly clear 40 - - - -
30/02:30pm 26.6 SE 13 19 1015.0 - 0.0 - Partly cloudy 10 - - - -
30/02:00pm 26.1 ESE 15 22 1015.2 - 0.0 - Partly cloudy 10 - - - -
30/01:30pm 26.8 ESE 13 20 1015.5 - 0.0 - Partly cloudy 10 - - - -
30/01:00pm 27.1 ESE 14 23 1015.9 - 0.0 - Partly cloudy 10 - - - -
30/12:49pm 27.0 ESE 15 25 1016.0 - 0.0 - Partly cloudy 10 - - - -
30/12:30pm 27.8 ESE 15 22 1016.2 - 0.0 - Partly cloudy 10 - - - -
30/12:01pm 27.7 ESE 16 26 1016.7 - 0.0 - - 10 - - - -
30/12:00pm 28.0 ESE 15 23 1016.7 - 0.0 - - 10 - - - -
30/11:30am 27.9 ESE 15 25 1017.2 - 0.0 - Partly cloudy 10 - - - -
30/11:29am 27.6 ESE 15 25 1017.1 - 0.0 - Partly cloudy 10 - - - -
30/11:00am 28.4 ESE 14 22 1017.7 - 0.0 - Partly cloudy 10 - - - -
30/10:30am 27.4 ESE 18 27 1017.8 - 0.0 - Partly cloudy 10 - - - -
30/10:00am 27.5 ESE 17 27 1017.9 - 0.0 - Partly cloudy 10 - - - -
30/09:51am 27.0 ESE 17 27 1017.9 - 0.0 - Partly cloudy 10 - - - -
30/09:30am 26.4 ESE 15 22 1017.9 - 0.0 - Partly cloudy 10 - - - -
30/09:00am 26.1 ESE 17 26 1017.8 R 0.4 Fine Partly cloudy 30 - - - -
30/08:30am 25.5 ESE 15 21 1017.6 - 0.4 - Partly cloudy 10 - - - -
30/08:00am 25.2 E 15 20 1017.1 - 0.4 - Partly cloudy 10 - - - -
30/07:30am 24.3 E 17 23 1016.6 - 0.4 - Cloudy 10 - - - -
30/07:00am 23.6 ESE 12 20 1016.1 - 0.4 - Partly cloudy 10 - - - -
30/06:30am 23.4 ESE 13 19 1015.8 - 0.4 - Partly cloudy 10 - - - -
30/06:00am 23.0 ESE 13 17 1015.3 - 0.4 - Cloudy 10 - - - -
30/05:30am 23.1 ESE 11 15 1015.3 - 0.4 - Partly cloudy 10 - - - -
30/05:00am 22.9 ESE 10 16 1015.0 - 0.4 - Partly cloudy 10 - - - -
30/04:30am 21.7 ESE 7 12 1014.8 - 0.4 - Partly cloudy 10 - - - -
30/04:00am 20.9 SSE 8 13 1014.8 - 0.4 - Partly cloudy 10 - - - -
30/03:51am 20.6 SSE 10 15 1015.0 - 0.4 - Partly cloudy 10 - - - -
30/03:30am 20.7 ESE 14 21 1015.1 - 0.2 - Partly cloudy 4 - - - -
30/03:26am 21.0 ESE 16 22 1015.1 - 0.2 - Partly cloudy 5 - - - -
30/03:00am 23.1 SE 9 14 1014.6 - 0.2 - Cloudy 10 - - - -
30/02:30am 23.0 ESE 9 15 1014.9 - 0.2 - Partly cloudy 10 - - - -
30/02:00am 23.1 ESE 10 16 1015.1 - 0.2 - Partly cloudy 10 - - - -
30/01:30am 23.4 ESE 10 14 1015.4 - 0.2 - Partly cloudy 10 - - - -
30/01:00am 23.0 ESE 10 14 1015.5 - 0.2 - Partly cloudy 10 - - - -
30/12:30am 22.8 ESE 9 14 1015.9 - 0.2 - Partly cloudy 10 - - - -
30/12:00am 22.7 ESE 9 12 1016.1 - 0.2 - Mostly clear 10 - - - -
 
Date/Time
EST
Temp

°C
Wind Pressure Rain
since 9am
mm
Weather Cloud Vis
km
Sea
Height
m
Swell
Dir
 
Speed
knots
Gust
knots
hPa Trend Height
m
Period
s
Dir
29/11:30pm 22.9 ESE 9 14 1016.4 - 0.2 - Partly cloudy 10 - - - -
29/11:00pm 22.9 ESE 7 9 1016.6 - 0.2 - Partly cloudy 10 - - - -
29/10:30pm 22.6 ESE 7 9 1016.7 - 0.2 - Partly cloudy 10 - - - -
29/10:00pm 22.9 ESE 9 13 1016.8 - 0.2 - Partly cloudy 10 - - - -
29/09:30pm 23.5 ESE 10 17 1016.8 - 0.2 - Partly cloudy 10 - - - -
29/09:00pm 22.8 SE 6 10 1016.5 - 0.2 - Cloudy 10 - - - -
29/08:30pm 22.5 SSE 5 8 1016.2 - 0.2 - Partly cloudy 10 - - - -
29/08:00pm 22.0 SE 5 7 1016.1 - 0.2 - Partly cloudy 10 - - - -
29/07:30pm 22.2 SSE 4 6 1015.8 - 0.0 - Partly cloudy 10 - - - -
29/07:00pm 22.3 SSE 4 6 1015.6 - 0.0 - Partly cloudy 10 - - - -
29/06:30pm 22.3 ESE 9 15 1015.4 - 0.0 - Partly cloudy 10 - - - -
29/06:00pm 23.5 SE 7 10 1014.9 - 0.0 - Cloudy 10 - - - -
29/05:30pm 23.2 ESE 8 12 1014.8 - 0.0 - Partly cloudy 10 - - - -
29/05:00pm 23.6 ESE 11 20 1014.6 - 0.0 - Partly cloudy 10 - - - -
29/04:30pm 23.8 SE 11 17 1014.6 - 0.0 - Partly cloudy 10 - - - -
29/04:00pm 23.8 ESE 8 12 1014.3 - 0.0 - Partly cloudy 10 - - - -
29/03:30pm 23.9 ESE 13 22 1014.3 - 0.0 - Partly cloudy 10 - - - -
29/03:00pm 26.1 ESE 16 21 1014.2 R 0.0 Fine Mostly cloudy 40 - - - -
29/02:30pm 26.9 SE 15 23 1014.4 - 0.0 - Partly cloudy 10 - - - -
29/02:00pm 27.2 SE 12 19 1014.6 - 0.0 - Partly cloudy 10 - - - -
29/01:30pm 27.7 SSE 12 20 1015.1 - 0.0 - Partly cloudy 10 - - - -
29/01:00pm 26.3 ESE 12 19 1015.4 - 0.0 - Partly cloudy 10 - - - -
29/12:30pm 27.6 ESE 16 23 1015.7 - 0.0 - Partly cloudy 10 - - - -
29/12:00pm 28.0 ESE 15 23 1016.1 - 0.0 - Cloudy 10 - - - -
29/11:45am 27.0 ESE 15 25 1016.4 - 0.0 - Partly cloudy 10 - - - -
29/11:30am 26.1 E 17 25 1016.6 - 0.0 - Partly cloudy 10 - - - -
29/11:00am 28.0 ESE 15 21 1016.9 - 0.0 - Partly cloudy 10 - - - -
29/10:30am 27.1 ESE 11 17 1017.2 - 0.0 - Partly cloudy 10 - - - -
29/10:00am 23.3 SE 11 16 1017.6 - 0.0 - Partly cloudy 10 - - - -
29/09:30am 24.2 ESE 10 15 1017.4 - 0.0 - Partly cloudy 10 - - - -
29/09:00am 23.4 ESE 12 17 1017.3 R 0.0 Fine Mostly cloudy 35 - - - -

Other Formats:

Comma delimited format used in spreadsheet applications
http://www.bom.gov.au/fwo/IDQ60701/IDQ60701.95283.axf

JavaScript Object Notation format (JSON) in row-major order
http://www.bom.gov.au/fwo/IDQ60701/IDQ60701.95283.json